Time;durP1;ratioP1;P1;durP2;ratioP2;P2;SDS_P1;SDS_P2;PMS_P1;PMS_P2;Temp;Humidity;BMP_temperature;BMP_pressure;BME280_temperature;BME280_humidity;BME280_pressure;Samples;Min_cycle;Max_cycle;Signal;HPM_P1;HPM_P2
2023/05/06 00:01:20;;;;;;;10.80;4.75;;;;;;;17.84;48.92;101406.09;5042513;27;99417;-77
2023/05/06 00:03:46;;;;;;;11.95;4.97;;;;;;;17.81;49.06;101408.94;5045790;27;98733;-77
2023/05/06 00:06:14;;;;;;;9.52;4.30;;;;;;;17.76;49.23;101411.00;5041955;27;96814;-78
2023/05/06 00:08:40;;;;;;;13.68;4.28;;;;;;;17.63;52.02;101407.28;5038309;27;99438;-78
2023/05/06 00:11:07;;;;;;;11.02;4.80;;;;;;;17.60;51.33;101410.06;5040662;27;98899;-78
2023/05/06 00:13:33;;;;;;;9.00;4.80;;;;;;;17.63;51.07;101396.59;5049353;27;98820;-77
2023/05/06 00:16:00;;;;;;;13.43;5.97;;;;;;;17.62;50.99;101394.00;5049454;27;96873;-78
2023/05/06 00:18:27;;;;;;;15.98;5.15;;;;;;;17.60;50.68;101399.38;5041071;27;98479;-78
2023/05/06 00:20:53;;;;;;;14.07;4.80;;;;;;;17.50;51.28;101395.50;5039039;27;97611;-78
2023/05/06 00:23:21;;;;;;;9.23;4.20;;;;;;;17.45;51.23;101394.88;5044362;27;97703;-78
2023/05/06 00:25:48;;;;;;;12.68;4.47;;;;;;;17.31;51.69;101389.41;5042266;27;97748;-77
2023/05/06 00:28:14;;;;;;;17.05;4.88;;;;;;;17.39;51.66;101392.53;5043334;27;96918;-77
2023/05/06 00:30:41;;;;;;;12.02;5.00;;;;;;;17.21;52.97;101393.50;5045829;27;97617;-77
2023/05/06 00:33:07;;;;;;;7.60;4.55;;;;;;;17.02;53.31;101394.47;5036116;27;98999;-77
2023/05/06 00:35:33;;;;;;;10.05;4.40;;;;;;;16.77;54.14;101394.00;5039802;27;97546;-78
2023/05/06 00:38:08;;;;;;;8.80;4.57;;;;;;;16.86;54.53;101390.88;5036036;27;98512;-78
2023/05/06 00:40:36;;;;;;;13.52;4.50;;;;;;;17.02;54.23;101375.78;5036008;27;101993;-78
2023/05/06 00:43:02;;;;;;;10.20;4.85;;;;;;;17.10;52.92;101370.91;5041763;27;99274;-77
2023/05/06 00:45:32;;;;;;;12.82;4.82;;;;;;;16.94;53.91;101367.28;5041466;27;97576;-78
2023/05/06 00:47:58;;;;;;;10.27;5.22;;;;;;;16.89;54.31;101363.16;5041133;27;96868;-77
2023/05/06 00:50:27;;;;;;;10.75;4.90;;;;;;;16.93;53.32;101354.91;5045416;27;98958;-78
2023/05/06 00:52:53;;;;;;;10.48;4.75;;;;;;;16.87;53.90;101360.53;5045246;27;98793;-77
2023/05/06 00:55:20;;;;;;;9.43;5.15;;;;;;;16.87;54.08;101354.38;5040440;27;96767;-78
2023/05/06 00:57:49;;;;;;;13.52;4.70;;;;;;;16.72;53.72;101345.34;5043964;27;96947;-79
2023/05/06 01:00:16;;;;;;;11.18;4.85;;;;;;;16.82;54.00;101343.91;5042025;27;98883;-79
2023/05/06 01:02:43;;;;;;;9.63;4.57;;;;;;;16.51;54.20;101343.72;5038744;27;97540;-78
2023/05/06 01:05:10;;;;;;;14.65;4.80;;;;;;;16.56;54.26;101345.22;5045467;27;98595;-78
2023/05/06 01:07:42;;;;;;;9.10;5.30;;;;;;;16.52;54.35;101340.13;5035619;27;98580;-77
2023/05/06 01:10:18;;;;;;;11.82;4.78;;;;;;;16.25;55.46;101345.91;5038092;27;98956;-78
2023/05/06 01:12:52;;;;;;;10.25;4.65;;;;;;;16.32;56.14;101336.66;5043369;27;99209;-78
2023/05/06 01:15:25;;;;;;;11.50;5.15;;;;;;;16.41;55.54;101332.66;5047900;27;96931;-78
2023/05/06 01:17:53;;;;;;;9.38;4.60;;;;;;;16.32;55.29;101331.31;5037936;27;97883;-78
2023/05/06 01:20:21;;;;;;;12.10;4.75;;;;;;;16.58;55.14;101330.00;5032379;27;98913;-78
2023/05/06 01:22:49;;;;;;;10.02;4.63;;;;;;;16.46;55.31;101335.97;5045015;27;100382;-78
2023/05/06 01:25:21;;;;;;;9.77;5.30;;;;;;;16.56;55.34;101323.00;5044778;27;96890;-77
2023/05/06 01:27:47;;;;;;;9.38;4.90;;;;;;;16.47;55.81;101329.69;5045131;27;99325;-78
2023/05/06 01:30:16;;;;;;;11.85;5.38;;;;;;;16.72;55.54;101330.19;5041461;27;99028;-77
2023/05/06 01:32:52;;;;;;;13.20;4.75;;;;;;;16.65;55.57;101327.91;5045434;27;98505;-77
2023/05/06 01:35:26;;;;;;;11.25;5.15;;;;;;;16.44;55.69;101327.19;5040848;27;97559;-77
2023/05/06 01:38:03;;;;;;;8.95;4.38;;;;;;;16.29;55.62;101333.25;5046957;27;97852;-78
2023/05/06 01:40:33;;;;;;;8.80;4.85;;;;;;;16.27;55.96;101325.38;5045684;27;98967;-77
2023/05/06 01:43:01;;;;;;;8.23;5.05;;;;;;;16.47;55.11;101329.69;5048639;27;98857;-78
2023/05/06 01:45:29;;;;;;;8.93;5.07;;;;;;;16.20;55.45;101320.41;5046812;27;97433;-77
2023/05/06 01:47:57;;;;;;;11.18;5.15;;;;;;;16.10;56.79;101324.44;5043918;27;97146;-77
2023/05/06 01:50:23;;;;;;;8.98;4.70;;;;;;;16.33;55.94;101330.41;5047733;27;97847;-77
2023/05/06 01:52:57;;;;;;;8.95;5.28;;;;;;;16.31;55.83;101326.06;5039627;27;98814;-77
2023/05/06 01:55:23;;;;;;;8.10;5.07;;;;;;;16.45;55.07;101333.38;5042866;27;96941;-77
2023/05/06 01:57:51;;;;;;;9.25;5.03;;;;;;;16.32;55.67;101327.78;5046707;27;96851;-76
2023/05/06 02:00:18;;;;;;;13.63;5.72;;;;;;;16.33;55.41;101332.19;5041922;27;99095;-77
2023/05/06 02:02:46;;;;;;;10.63;5.03;;;;;;;16.30;55.12;101327.88;5047715;27;99180;-77
2023/05/06 02:05:12;;;;;;;13.15;5.50;;;;;;;16.43;55.39;101324.56;5038478;27;96877;-76
2023/05/06 02:07:39;;;;;;;11.80;5.47;;;;;;;16.28;55.63;101329.72;5046193;27;96913;-76
2023/05/06 02:10:07;;;;;;;11.10;5.68;;;;;;;16.16;56.73;101325.00;5038333;27;99181;-77
2023/05/06 02:12:34;;;;;;;11.77;5.90;;;;;;;16.20;55.89;101323.94;5041295;27;98574;-77
2023/05/06 02:15:01;;;;;;;12.18;5.38;;;;;;;16.12;56.33;101328.78;5035480;27;98374;-76
2023/05/06 02:17:28;;;;;;;9.30;5.72;;;;;;;16.21;55.93;101332.81;5036665;27;97681;-78
2023/05/06 02:19:54;;;;;;;10.25;4.93;;;;;;;16.13;55.82;101329.66;5031830;27;98319;-79
2023/05/06 02:22:20;;;;;;;13.07;5.13;;;;;;;16.05;56.09;101337.16;5036180;27;98780;-77
2023/05/06 02:24:47;;;;;;;12.40;5.78;;;;;;;15.86;56.39;101331.84;5039315;27;96813;-76
2023/05/06 02:27:13;;;;;;;9.32;4.82;;;;;;;16.24;55.94;101338.84;5042823;27;96805;-77
2023/05/06 02:29:39;;;;;;;10.70;5.13;;;;;;;16.09;55.99;101339.59;5042877;27;98908;-77
2023/05/06 02:32:07;;;;;;;10.70;5.15;;;;;;;16.18;55.42;101333.81;5047365;27;99378;-79
2023/05/06 02:34:33;;;;;;;8.75;5.03;;;;;;;15.79;56.27;101335.75;5039524;27;96857;-78
2023/05/06 02:37:00;;;;;;;14.80;5.22;;;;;;;15.97;56.17;101334.84;5042158;27;97682;-78
2023/05/06 02:39:26;;;;;;;11.45;5.53;;;;;;;16.01;56.49;101332.91;5039257;27;99092;-77
2023/05/06 02:41:52;;;;;;;12.90;5.35;;;;;;;16.24;55.98;101337.97;5031392;27;98864;-78
2023/05/06 02:44:19;;;;;;;7.03;4.50;;;;;;;15.97;56.39;101340.19;5044086;27;96782;-78
2023/05/06 02:46:45;;;;;;;11.10;5.50;;;;;;;16.03;56.12;101339.03;5033504;27;96980;-78
2023/05/06 02:49:13;;;;;;;9.60;5.45;;;;;;;15.85;57.01;101338.13;5036858;27;98948;-78
2023/05/06 02:51:39;;;;;;;13.73;5.18;;;;;;;15.85;57.03;101335.44;5032541;27;97736;-77
2023/05/06 02:54:06;;;;;;;11.68;5.57;;;;;;;16.01;56.28;101332.91;5047379;27;96838;-77
2023/05/06 02:56:32;;;;;;;13.25;5.78;;;;;;;15.88;56.98;101330.00;5046048;27;97276;-77
2023/05/06 02:58:58;;;;;;;14.18;5.88;;;;;;;15.97;56.16;101324.19;5042709;27;99322;-77
2023/05/06 03:01:25;;;;;;;10.02;4.95;;;;;;;15.85;56.47;101322.13;5040790;27;99319;-78
2023/05/06 03:03:51;;;;;;;8.63;5.22;;;;;;;15.60;56.27;101318.91;5045300;27;96911;-78
2023/05/06 03:06:19;;;;;;;14.02;5.93;;;;;;;15.51;56.78;101313.03;5046144;27;97215;-78
2023/05/06 03:08:45;;;;;;;11.65;6.22;;;;;;;15.46;56.93;101320.38;5039972;27;99239;-78
2023/05/06 03:11:12;;;;;;;15.20;5.47;;;;;;;15.44;57.06;101316.91;5040310;27;98756;-78
2023/05/06 03:13:39;;;;;;;13.90;5.53;;;;;;;15.55;56.48;101319.13;5032940;27;96933;-78
2023/05/06 03:16:12;;;;;;;13.15;6.18;;;;;;;15.40;56.59;101323.34;5040142;27;96851;-77
2023/05/06 03:18:38;;;;;;;11.65;5.85;;;;;;;15.38;56.79;101333.19;5038580;27;102384;-78
2023/05/06 03:21:05;;;;;;;12.48;5.63;;;;;;;15.12;56.75;101334.38;5032914;27;98879;-78
2023/05/06 03:23:33;;;;;;;10.00;5.50;;;;;;;15.17;57.04;101334.16;5048662;27;98329;-78
2023/05/06 03:25:59;;;;;;;13.88;5.85;;;;;;;15.15;56.31;101334.25;5035433;27;97934;-78
2023/05/06 03:28:25;;;;;;;12.70;6.10;;;;;;;14.87;57.49;101340.84;5039582;27;99357;-78
2023/05/06 03:30:52;;;;;;;10.45;5.35;;;;;;;15.03;56.90;101334.78;5034748;27;98244;-77
2023/05/06 03:33:18;;;;;;;9.90;5.57;;;;;;;14.89;57.55;101341.66;5043251;27;97172;-77
2023/05/06 03:35:45;;;;;;;10.50;5.25;;;;;;;14.92;57.53;101336.19;5050633;27;97483;-77
2023/05/06 03:38:11;;;;;;;11.02;5.60;;;;;;;14.97;57.49;101328.84;5041870;27;99093;-78
2023/05/06 03:40:39;;;;;;;12.05;5.68;;;;;;;14.91;57.86;101321.16;5046204;27;99214;-79
2023/05/06 03:43:05;;;;;;;10.07;5.50;;;;;;;14.93;58.06;101322.81;5045998;27;96887;-80
2023/05/06 03:45:35;;;;;;;9.68;5.25;;;;;;;15.24;57.29;101321.44;5049312;27;97021;-79
2023/05/06 03:48:01;;;;;;;10.23;6.07;;;;;;;15.04;57.60;101314.34;5044980;27;98906;-77
2023/05/06 03:50:28;;;;;;;16.30;5.80;;;;;;;14.98;58.13;101314.63;5042658;27;99096;-77
2023/05/06 03:52:54;;;;;;;17.20;6.10;;;;;;;15.36;56.94;101303.09;5044079;27;96845;-76
2023/05/06 03:55:21;;;;;;;13.45;5.65;;;;;;;15.32;56.45;101309.50;5037939;27;96911;-76
2023/05/06 03:57:48;;;;;;;10.32;6.15;;;;;;;15.21;56.46;101306.47;5039732;27;100587;-77
2023/05/06 04:00:15;;;;;;;10.50;5.85;;;;;;;15.25;56.27;101296.53;5039571;27;102041;-78
2023/05/06 04:02:42;;;;;;;12.75;5.80;;;;;;;15.11;56.67;101297.16;5042012;27;96735;-78
2023/05/06 04:05:08;;;;;;;10.23;5.22;;;;;;;15.20;56.13;101294.09;5045536;27;96924;-78
2023/05/06 04:07:35;;;;;;;14.55;5.63;;;;;;;15.26;56.23;101296.47;5036412;27;103352;-78
2023/05/06 04:10:01;;;;;;;9.75;5.70;;;;;;;15.12;56.65;101302.44;5040410;27;100768;-78
2023/05/06 04:12:28;;;;;;;10.75;6.03;;;;;;;14.79;57.24;101313.72;5040556;27;98893;-79
2023/05/06 04:14:55;;;;;;;9.82;5.70;;;;;;;14.86;56.73;101313.38;5043451;27;97675;-76
2023/05/06 04:17:22;;;;;;;10.15;5.28;;;;;;;14.74;56.94;101312.13;5044770;27;99663;-75
2023/05/06 04:19:48;;;;;;;11.90;5.75;;;;;;;14.90;57.04;101317.63;5039068;27;98846;-78
2023/05/06 04:22:15;;;;;;;14.38;6.65;;;;;;;15.08;56.96;101308.84;5044034;27;96684;-77
2023/05/06 04:24:41;;;;;;;10.75;5.57;;;;;;;15.20;56.15;101317.19;5050582;27;97066;-77
2023/05/06 04:27:07;;;;;;;12.55;5.65;;;;;;;15.22;55.96;101318.00;5041558;27;97714;-76
2023/05/06 04:29:34;;;;;;;8.82;6.20;;;;;;;15.39;55.37;101324.25;5034131;27;102148;-77
2023/05/06 04:32:03;;;;;;;9.10;5.60;;;;;;;15.30;55.29;101322.00;5049910;27;96756;-76
2023/05/06 04:34:29;;;;;;;7.80;5.30;;;;;;;15.48;55.38;101322.97;5045049;27;97239;-76
2023/05/06 04:36:57;;;;;;;10.82;5.65;;;;;;;15.36;55.49;101334.22;5036141;27;102319;-78
2023/05/06 04:39:23;;;;;;;9.52;5.75;;;;;;;15.24;55.52;101332.94;5039869;27;99005;-78
2023/05/06 04:41:50;;;;;;;12.07;6.07;;;;;;;15.21;55.85;101338.44;5039481;27;96847;-76
2023/05/06 04:44:18;;;;;;;13.07;5.65;;;;;;;15.46;55.10;101328.38;5038693;27;98459;-76
2023/05/06 04:46:44;;;;;;;13.73;5.35;;;;;;;15.46;54.76;101325.72;5035676;27;98911;-78
2023/05/06 04:49:12;;;;;;;11.05;5.47;;;;;;;15.24;55.35;101332.06;5040770;27;100300;-77
2023/05/06 04:51:39;;;;;;;8.98;5.68;;;;;;;15.46;54.93;101339.03;5037059;27;97189;-77
2023/05/06 04:54:05;;;;;;;13.00;5.85;;;;;;;15.39;54.25;101339.38;5039529;27;98245;-76
2023/05/06 04:56:31;;;;;;;9.40;5.35;;;;;;;15.34;54.84;101344.91;5043795;27;98955;-75
2023/05/06 04:58:58;;;;;;;10.32;5.43;;;;;;;15.38;54.25;101335.84;5042098;27;99140;-78
2023/05/06 05:01:25;;;;;;;9.77;5.80;;;;;;;15.08;55.50;101347.91;5045353;27;96843;-76
2023/05/06 05:03:51;;;;;;;12.75;6.13;;;;;;;15.40;54.94;101352.63;5043312;27;99516;-76
2023/05/06 05:06:19;;;;;;;15.35;5.75;;;;;;;15.23;55.32;101351.69;5042956;27;99572;-77
2023/05/06 05:08:45;;;;;;;13.70;5.78;;;;;;;15.22;54.09;101350.81;5043128;27;100605;-77
2023/05/06 05:11:12;;;;;;;8.57;5.47;;;;;;;15.40;53.98;101351.75;5047794;27;97154;-77
2023/05/06 05:13:38;;;;;;;12.40;5.32;;;;;;;15.38;54.63;101364.28;5041879;27;97903;-75
2023/05/06 05:16:05;;;;;;;10.85;5.25;;;;;;;15.30;54.17;101359.28;5040581;27;99562;-78
2023/05/06 05:18:32;;;;;;;11.43;4.72;;;;;;;15.30;53.91;101363.75;5040847;27;99138;-77
2023/05/06 05:20:58;;;;;;;9.70;6.20;;;;;;;15.29;54.81;101368.25;5039268;27;96898;-77
2023/05/06 05:23:26;;;;;;;10.82;5.60;;;;;;;15.25;54.20;101366.63;5051749;27;96982;-80
2023/05/06 05:25:52;;;;;;;10.27;5.80;;;;;;;15.28;54.03;101362.97;5044207;27;99820;-77
2023/05/06 05:28:19;;;;;;;9.60;5.07;;;;;;;15.16;54.06;101367.91;5041206;27;97651;-79
2023/05/06 05:30:45;;;;;;;15.38;5.85;;;;;;;15.37;54.16;101366.06;5042906;27;96740;-77
2023/05/06 05:33:12;;;;;;;11.32;5.82;;;;;;;15.22;54.31;101366.78;5048766;27;96857;-76
2023/05/06 05:35:38;;;;;;;10.70;5.40;;;;;;;15.08;54.14;101366.53;5037864;27;99392;-76
2023/05/06 05:38:04;;;;;;;11.25;5.60;;;;;;;14.99;53.92;101370.44;5049170;27;97599;-75
2023/05/06 05:40:32;;;;;;;11.73;5.55;;;;;;;14.74;54.66;101368.00;5039663;27;97050;-75
2023/05/06 05:42:59;;;;;;;11.23;6.00;;;;;;;14.88;54.54;101361.22;5037253;27;97935;-75
2023/05/06 05:45:25;;;;;;;9.10;5.90;;;;;;;15.13;54.38;101367.19;5039351;27;98648;-76
2023/05/06 05:47:52;;;;;;;11.77;5.97;;;;;;;15.12;54.62;101366.31;5038401;27;99148;-76
2023/05/06 05:50:19;;;;;;;9.45;5.38;;;;;;;15.06;54.25;101360.41;5045096;27;96782;-77
2023/05/06 05:52:46;;;;;;;21.45;6.28;;;;;;;15.29;54.18;101356.72;5042541;27;96820;-76
2023/05/06 05:55:12;;;;;;;8.32;5.25;;;;;;;15.33;53.65;101358.31;5037131;27;99351;-78
2023/05/06 05:57:40;;;;;;;10.90;6.10;;;;;;;15.30;53.72;101359.28;5043771;27;98016;-78
2023/05/06 06:00:08;;;;;;;10.00;5.55;;;;;;;15.57;53.30;101362.53;5047936;27;97136;-79
2023/05/06 06:02:35;;;;;;;12.93;6.20;;;;;;;15.48;53.42;101369.13;5046000;27;97003;-78
2023/05/06 06:05:01;;;;;;;10.40;5.40;;;;;;;15.48;53.53;101373.59;5050158;27;99612;-78
2023/05/06 06:07:27;;;;;;;15.55;6.03;;;;;;;15.62;52.88;101371.16;5042113;27;98792;-78
2023/05/06 06:09:54;;;;;;;15.15;5.95;;;;;;;15.60;53.64;101370.38;5040603;27;98795;-79
2023/05/06 06:12:20;;;;;;;11.38;6.20;;;;;;;15.56;53.01;101382.09;5036293;27;99727;-79
2023/05/06 06:14:48;;;;;;;8.20;5.25;;;;;;;15.58;52.95;101374.03;5042448;27;99484;-77
2023/05/06 06:17:16;;;;;;;10.63;5.90;;;;;;;15.28;53.22;101385.13;5035247;27;98923;-77
2023/05/06 06:19:42;;;;;;;10.15;5.57;;;;;;;15.40;53.33;101395.22;5042872;27;99670;-77
2023/05/06 06:22:09;;;;;;;10.75;5.15;;;;;;;15.30;53.49;101401.03;5041843;27;96982;-78
2023/05/06 06:24:35;;;;;;;8.70;5.43;;;;;;;15.30;53.12;101401.03;5041158;27;99266;-80
2023/05/06 06:27:02;;;;;;;9.38;5.68;;;;;;;15.25;53.21;101395.91;5048641;27;99132;-78
2023/05/06 06:29:28;;;;;;;10.85;5.18;;;;;;;15.26;53.07;101394.97;5053842;27;97181;-78
2023/05/06 06:31:57;;;;;;;15.45;6.13;;;;;;;14.99;53.81;101398.84;5045458;27;96863;-80
2023/05/06 06:34:23;;;;;;;9.43;5.57;;;;;;;15.17;53.84;101392.72;5045011;27;101408;-80
2023/05/06 06:36:50;;;;;;;10.85;6.28;;;;;;;15.14;53.69;101385.75;5044825;27;98104;-80
2023/05/06 06:39:16;;;;;;;12.15;6.18;;;;;;;15.14;53.71;101385.75;5044244;27;96877;-81
2023/05/06 06:41:43;;;;;;;13.73;6.43;;;;;;;15.16;53.94;101388.34;5038014;27;96939;-78
2023/05/06 06:44:09;;;;;;;14.25;5.93;;;;;;;15.15;53.53;101389.28;5037552;27;99014;-76
2023/05/06 06:46:35;;;;;;;7.50;5.68;;;;;;;15.12;53.72;101386.75;5039843;27;98973;-77
2023/05/06 06:49:03;;;;;;;9.55;5.65;;;;;;;15.18;53.84;101388.25;5043520;27;97616;-77
2023/05/06 06:51:31;;;;;;;10.57;5.57;;;;;;;15.18;54.13;101383.81;5037965;27;96822;-78
2023/05/06 06:53:57;;;;;;;9.57;5.40;;;;;;;15.31;53.64;101387.66;5041431;27;99134;-78
2023/05/06 06:56:24;;;;;;;11.02;6.32;;;;;;;15.27;54.35;101388.72;5037016;27;99268;-77
2023/05/06 06:58:50;;;;;;;11.45;5.68;;;;;;;15.42;53.76;101387.19;5042585;27;96799;-77
2023/05/06 07:01:17;;;;;;;11.18;5.90;;;;;;;15.35;54.09;101389.25;5046202;27;96784;-78
2023/05/06 07:03:44;;;;;;;9.98;5.85;;;;;;;15.24;54.18;101395.97;5042519;27;98989;-77
2023/05/06 07:06:12;;;;;;;10.18;6.20;;;;;;;15.09;54.33;101389.56;5037664;27;101633;-77
2023/05/06 07:08:38;;;;;;;9.65;6.10;;;;;;;15.02;54.37;101396.06;5043891;27;97911;-77
2023/05/06 07:11:05;;;;;;;11.25;6.72;;;;;;;15.06;54.84;101397.66;5045379;27;97123;-77
2023/05/06 07:13:31;;;;;;;10.60;5.55;;;;;;;14.99;54.40;101397.06;5045048;27;99222;-77
2023/05/06 07:15:58;;;;;;;13.98;6.40;;;;;;;14.95;55.12;101405.25;5047081;27;101308;-78
2023/05/06 07:18:24;;;;;;;12.75;6.00;;;;;;;15.13;54.40;101394.66;5031141;27;97171;-76
2023/05/06 07:20:51;;;;;;;11.13;6.95;;;;;;;15.18;54.76;101390.94;5038990;27;97263;-76
2023/05/06 07:23:19;;;;;;;10.00;6.28;;;;;;;15.35;54.37;101399.91;5049449;27;101425;-78
2023/05/06 07:25:45;;;;;;;10.90;6.63;;;;;;;15.08;54.69;101394.00;5040791;27;98911;-77
2023/05/06 07:28:12;;;;;;;12.30;6.50;;;;;;;15.26;54.22;101397.66;5048693;27;96752;-77
2023/05/06 07:30:38;;;;;;;13.23;6.47;;;;;;;15.31;53.57;101402.75;5048712;27;98078;-77
2023/05/06 07:33:05;;;;;;;13.45;6.18;;;;;;;14.96;54.42;101396.34;5046874;27;97856;-78
2023/05/06 07:35:31;;;;;;;13.02;6.75;;;;;;;15.07;54.25;101394.94;5047468;27;98855;-77
2023/05/06 07:37:58;;;;;;;14.18;6.90;;;;;;;14.98;54.18;101413.09;5043181;27;96766;-77
2023/05/06 07:40:26;;;;;;;9.90;6.13;;;;;;;15.17;54.25;101400.72;5049137;27;97226;-77
2023/05/06 07:42:52;;;;;;;13.05;7.53;;;;;;;15.27;54.07;101415.34;5036029;27;99707;-79
2023/05/06 07:45:22;;;;;;;14.43;6.72;;;;;;;15.04;55.14;101407.50;5050483;27;99562;-77
2023/05/06 07:47:48;;;;;;;13.13;7.25;;;;;;;14.96;55.12;101409.66;5037454;27;96848;-77
2023/05/06 07:50:21;;;;;;;10.73;7.00;;;;;;;14.97;55.26;101414.00;5045294;27;96678;-78
2023/05/06 07:52:47;;;;;;;12.23;6.78;;;;;;;15.08;54.70;101422.44;5047910;27;99022;-77
2023/05/06 07:55:14;;;;;;;10.73;6.72;;;;;;;14.93;54.78;101423.06;5040308;27;97614;-77
2023/05/06 07:57:41;;;;;;;11.30;6.40;;;;;;;14.94;55.09;101424.81;5047533;27;96685;-78
2023/05/06 08:00:09;;;;;;;10.77;6.63;;;;;;;15.25;54.22;101419.88;5051372;27;96752;-78
2023/05/06 08:02:37;;;;;;;9.98;7.47;;;;;;;15.16;54.35;101415.81;5044689;27;99233;-78
2023/05/06 08:05:06;;;;;;;12.10;6.75;;;;;;;15.17;54.59;101416.69;5050191;27;99221;-77
2023/05/06 08:07:33;;;;;;;10.20;6.85;;;;;;;15.22;54.91;101428.00;5044364;27;97042;-77
2023/05/06 08:09:59;;;;;;;12.40;7.07;;;;;;;15.49;54.35;101424.09;5039979;27;97038;-78
2023/05/06 08:12:26;;;;;;;13.77;7.22;;;;;;;15.57;53.91;101429.13;5045987;27;99001;-78
2023/05/06 08:14:54;;;;;;;14.40;7.20;;;;;;;15.42;54.46;101429.78;5046325;27;102531;-77
2023/05/06 08:17:20;;;;;;;18.33;7.55;;;;;;;15.44;54.86;101431.44;5043590;27;96751;-78
2023/05/06 08:19:47;;;;;;;10.43;6.88;;;;;;;15.40;55.37;101429.84;5050028;27;96926;-78
2023/05/06 08:22:15;;;;;;;13.10;7.28;;;;;;;15.58;55.22;101433.50;5052590;27;99117;-78
2023/05/06 08:24:41;;;;;;;15.95;7.53;;;;;;;15.47;55.59;101435.78;5045050;27;100062;-79
2023/05/06 08:27:08;;;;;;;9.13;7.25;;;;;;;15.71;54.85;101445.34;5045020;27;96761;-78
2023/05/06 08:29:34;;;;;;;15.07;8.18;;;;;;;15.42;55.64;101446.63;5050838;27;98383;-77
2023/05/06 08:32:02;;;;;;;11.02;7.18;;;;;;;15.22;56.41;101444.00;5050114;27;98905;-76
2023/05/06 08:34:28;;;;;;;12.07;7.80;;;;;;;15.22;56.71;101446.66;5047585;27;98811;-77
2023/05/06 08:36:55;;;;;;;13.18;8.20;;;;;;;15.12;57.30;101453.28;5052226;27;97121;-78
2023/05/06 08:39:22;;;;;;;15.85;8.75;;;;;;;15.27;57.65;101457.97;5050080;27;96999;-78
2023/05/06 08:41:52;;;;;;;10.68;7.53;;;;;;;15.41;56.30;101458.22;5038217;27;99423;-76
2023/05/06 08:44:20;;;;;;;14.35;8.05;;;;;;;15.25;57.13;101459.81;5036234;27;99036;-78
2023/05/06 08:46:47;;;;;;;11.43;7.78;;;;;;;15.37;56.45;101461.94;5043796;27;96844;-77
2023/05/06 08:49:15;;;;;;;13.70;8.07;;;;;;;15.39;56.93;101460.06;5049853;27;96893;-79
2023/05/06 08:51:43;;;;;;;18.27;8.40;;;;;;;15.25;57.27;101458.94;5045673;27;98886;-77
2023/05/06 08:54:11;;;;;;;14.95;7.60;;;;;;;15.35;57.04;101473.59;5043027;27;96843;-78
2023/05/06 08:56:39;;;;;;;13.57;8.60;;;;;;;15.46;57.11;101466.88;5045013;27;96788;-77
2023/05/06 08:59:08;;;;;;;9.55;7.68;;;;;;;15.57;56.78;101476.19;5051929;27;97541;-77
2023/05/06 09:01:35;;;;;;;13.73;8.90;;;;;;;15.56;57.20;101471.84;5047727;27;99202;-78
2023/05/06 09:04:04;;;;;;;11.82;8.55;;;;;;;15.71;56.93;101477.31;5040636;27;98840;-78
2023/05/06 09:06:32;;;;;;;11.60;7.93;;;;;;;15.65;56.95;101479.38;5041697;27;96894;-78
2023/05/06 09:08:58;;;;;;;12.52;7.47;;;;;;;15.83;56.63;101482.09;5048389;27;97003;-78
2023/05/06 09:11:27;;;;;;;13.70;8.20;;;;;;;15.81;56.84;101488.44;5043631;27;99154;-77
2023/05/06 09:14:08;;;;;;;11.18;8.15;;;;;;;15.80;57.42;101481.38;5041058;27;99048;-77
2023/05/06 09:16:35;;;;;;;11.35;8.15;;;;;;;15.62;57.67;101479.53;5046723;27;96811;-78
2023/05/06 09:19:01;;;;;;;12.45;7.95;;;;;;;15.76;57.55;101488.63;5042384;27;96862;-78
2023/05/06 09:21:36;;;;;;;10.55;7.78;;;;;;;15.77;57.33;101493.03;5045076;27;98215;-80
2023/05/06 09:24:11;;;;;;;11.10;7.47;;;;;;;15.53;57.28;101488.81;5048915;27;99493;-77
2023/05/06 09:26:39;;;;;;;11.15;8.18;;;;;;;15.71;57.44;101495.09;5047921;27;97186;-77
2023/05/06 09:29:06;;;;;;;13.40;7.75;;;;;;;15.55;57.42;101492.28;5046064;27;97185;-78
2023/05/06 09:31:32;;;;;;;12.52;7.68;;;;;;;15.21;58.44;101492.84;5039712;27;102050;-79
2023/05/06 09:34:00;;;;;;;10.85;9.02;;;;;;;15.39;58.84;101492.03;5049369;27;97623;-75
2023/05/06 09:36:27;;;;;;;12.02;7.97;;;;;;;15.57;58.38;101489.50;5037824;27;96741;-75
2023/05/06 09:38:55;;;;;;;10.85;7.97;;;;;;;15.72;58.36;101488.84;5046447;27;97055;-75
2023/05/06 09:41:24;;;;;;;15.43;8.63;;;;;;;16.03;57.88;101488.28;5035017;27;98926;-75
2023/05/06 09:43:52;;;;;;;12.75;8.48;;;;;;;15.87;58.21;101496.16;5046270;27;98909;-78
2023/05/06 09:46:18;;;;;;;9.40;7.15;;;;;;;15.74;58.07;101486.97;5044117;27;96933;-78
2023/05/06 09:48:54;;;;;;;11.07;7.80;;;;;;;15.86;58.16;101492.63;5049353;27;97228;-79
2023/05/06 09:51:26;;;;;;;11.32;7.30;;;;;;;15.97;58.24;101485.91;5046060;27;98866;-79
2023/05/06 09:53:56;;;;;;;12.40;7.10;;;;;;;15.92;57.54;101491.47;5039117;27;99152;-79
2023/05/06 09:56:26;;;;;;;10.93;7.72;;;;;;;15.85;58.15;101495.34;5045102;27;97150;-79
2023/05/06 09:58:54;;;;;;;11.77;7.25;;;;;;;15.97;57.41;101497.44;5043617;27;96859;-79
2023/05/06 10:01:21;;;;;;;12.23;7.10;;;;;;;15.99;57.14;101498.25;5045100;27;97920;-78
2023/05/06 10:03:50;;;;;;;9.55;7.10;;;;;;;16.02;57.36;101503.44;5037544;27;97898;-79
2023/05/06 10:06:18;;;;;;;15.00;8.05;;;;;;;15.98;57.30;101504.50;5048381;27;96767;-78
2023/05/06 10:08:45;;;;;;;12.43;8.40;;;;;;;15.95;57.51;101500.19;5046227;27;96955;-78
2023/05/06 10:11:16;;;;;;;11.43;6.80;;;;;;;15.63;57.20;101497.22;5042808;27;99332;-80
2023/05/06 10:13:45;;;;;;;11.48;6.97;;;;;;;15.58;58.19;101510.75;5047481;27;98730;-75
2023/05/06 10:16:14;;;;;;;11.70;6.97;;;;;;;15.78;57.42;101508.09;5044984;27;96916;-73
2023/05/06 10:18:41;;;;;;;10.40;7.63;;;;;;;15.84;57.38;101515.78;5048205;27;96878;-74
2023/05/06 10:21:20;;;;;;;9.25;6.93;;;;;;;15.92;57.09;101521.66;5044160;27;99019;-75
2023/05/06 10:23:55;;;;;;;10.32;7.07;;;;;;;15.86;57.99;101518.41;5044180;27;99159;-75
2023/05/06 10:26:24;;;;;;;11.77;6.88;;;;;;;15.67;57.16;101526.34;5044096;27;97144;-75
2023/05/06 10:28:53;;;;;;;9.85;6.32;;;;;;;15.70;57.34;101518.22;5040186;27;96973;-76
2023/05/06 10:31:20;;;;;;;8.20;5.55;;;;;;;15.70;57.20;101512.88;5040728;27;97161;-75
2023/05/06 10:33:50;;;;;;;10.77;6.40;;;;;;;15.80;56.64;101510.69;5050227;27;99316;-74
2023/05/06 10:36:20;;;;;;;8.05;6.22;;;;;;;15.99;55.76;101519.56;5046171;27;96901;-75
2023/05/06 10:38:51;;;;;;;11.00;6.18;;;;;;;15.75;56.67;101518.88;5044722;27;97084;-74
2023/05/06 10:41:20;;;;;;;11.68;6.47;;;;;;;16.03;55.93;101514.97;5043498;27;98965;-75
2023/05/06 10:43:55;;;;;;;6.82;5.20;;;;;;;15.97;55.99;101520.56;5040786;27;98963;-76
2023/05/06 10:46:22;;;;;;;9.95;6.07;;;;;;;16.07;55.30;101516.56;5046615;27;97287;-75
2023/05/06 10:49:18;;;;;;;8.60;6.70;;;;;;;16.00;55.86;101521.31;5054566;27;96807;-75
2023/05/06 10:51:44;;;;;;;9.43;6.63;;;;;;;16.02;55.83;101519.41;5050485;27;98875;-77
2023/05/06 10:54:22;;;;;;;7.32;5.93;;;;;;;16.19;55.27;101524.84;5039813;27;101621;-75
2023/05/06 10:57:10;;;;;;;12.70;6.00;;;;;;;16.30;54.95;101527.00;5052318;27;96943;-74
2023/05/06 10:59:45;;;;;;;9.23;5.60;;;;;;;16.35;54.63;101520.53;5052393;27;97244;-75
2023/05/06 11:02:11;;;;;;;8.20;5.88;;;;;;;16.22;55.13;101527.38;5043326;27;98907;-75
2023/05/06 11:04:39;;;;;;;6.63;4.85;;;;;;;16.19;54.70;101524.00;5042913;27;99852;-75
2023/05/06 11:07:10;;;;;;;8.60;5.22;;;;;;;16.27;54.50;101529.84;5037815;27;96876;-75
2023/05/06 11:09:55;;;;;;;18.70;10.38;;;;;;;16.21;54.48;101522.97;5048564;27;96818;-75
2023/05/06 11:12:22;;;;;;;6.18;4.90;;;;;;;15.99;54.65;101522.25;5044360;27;99212;-74
2023/05/06 11:14:49;;;;;;;8.27;5.63;;;;;;;16.07;54.73;101527.22;5046144;27;98831;-75
2023/05/06 11:17:30;;;;;;;6.97;4.95;;;;;;;15.95;54.85;101534.81;5045277;27;96860;-75
2023/05/06 11:20:18;;;;;;;6.18;4.90;;;;;;;15.84;55.37;101549.56;5044585;27;99957;-75
2023/05/06 11:22:44;;;;;;;7.20;4.18;;;;;;;15.83;54.81;101547.84;5047659;27;98870;-75